sensor_id;sensor_type;location;lat;lon;timestamp;pressure;altitude;pressure_sealevel;temperature;humidity
4836;BME280;2432;51.226;6.904;2022-12-29T00:01:56;99644.44;;;8.88;100.00
4836;BME280;2432;51.226;6.904;2022-12-29T00:04:22;99630.56;;;8.86;100.00
4836;BME280;2432;51.226;6.904;2022-12-29T00:06:49;99640.13;;;8.87;100.00
4836;BME280;2432;51.226;6.904;2022-12-29T00:09:16;99638.22;;;8.92;100.00
4836;BME280;2432;51.226;6.904;2022-12-29T00:11:42;99633.84;;;8.92;100.00
4836;BME280;2432;51.226;6.904;2022-12-29T00:14:10;99615.53;;;8.94;100.00
4836;BME280;2432;51.226;6.904;2022-12-29T00:16:55;99605.16;;;8.92;100.00
4836;BME280;2432;51.226;6.904;2022-12-29T00:19:23;99607.69;;;8.94;100.00
4836;BME280;2432;51.226;6.904;2022-12-29T00:22:10;99602.47;;;8.94;100.00
4836;BME280;2432;51.226;6.904;2022-12-29T00:24:56;99605.94;;;8.94;100.00
4836;BME280;2432;51.226;6.904;2022-12-29T00:27:43;99609.34;;;8.98;100.00
4836;BME280;2432;51.226;6.904;2022-12-29T00:30:32;99595.47;;;8.96;100.00
4836;BME280;2432;51.226;6.904;2022-12-29T00:33:20;99598.91;;;8.98;100.00
4836;BME280;2432;51.226;6.904;2022-12-29T00:36:26;99600.78;;;8.93;100.00
4836;BME280;2432;51.226;6.904;2022-12-29T00:38:59;99596.28;;;8.98;100.00
4836;BME280;2432;51.226;6.904;2022-12-29T00:41:45;99591.00;;;8.99;100.00
4836;BME280;2432;51.226;6.904;2022-12-29T00:44:30;99612.81;;;8.98;100.00
4836;BME280;2432;51.226;6.904;2022-12-29T00:46:56;99594.53;;;8.98;100.00
4836;BME280;2432;51.226;6.904;2022-12-29T00:49:23;99597.03;;;9.01;100.00
4836;BME280;2432;51.226;6.904;2022-12-29T00:52:08;99583.13;;;9.01;100.00
4836;BME280;2432;51.226;6.904;2022-12-29T00:54:36;99580.47;;;9.02;100.00
4836;BME280;2432;51.226;6.904;2022-12-29T00:57:04;99577.91;;;9.01;100.00
4836;BME280;2432;51.226;6.904;2022-12-29T00:59:31;99575.28;;;9.01;100.00
4836;BME280;2432;51.226;6.904;2022-12-29T01:01:58;99573.53;;;9.01;100.00
4836;BME280;2432;51.226;6.904;2022-12-29T01:04:25;99577.72;;;9.07;100.00
4836;BME280;2432;51.226;6.904;2022-12-29T01:06:52;99573.31;;;9.09;100.00
4836;BME280;2432;51.226;6.904;2022-12-29T01:09:19;99569.84;;;9.09;100.00
4836;BME280;2432;51.226;6.904;2022-12-29T01:12:05;99563.66;;;9.11;100.00
4836;BME280;2432;51.226;6.904;2022-12-29T01:14:32;99571.53;;;9.10;100.00
4836;BME280;2432;51.226;6.904;2022-12-29T01:16:59;99572.34;;;9.12;100.00
4836;BME280;2432;51.226;6.904;2022-12-29T01:19:25;99586.19;;;9.15;100.00
4836;BME280;2432;51.226;6.904;2022-12-29T01:21:52;99579.09;;;9.19;100.00
4836;BME280;2432;51.226;6.904;2022-12-29T01:24:20;99578.19;;;9.20;100.00
4836;BME280;2432;51.226;6.904;2022-12-29T01:26:47;99584.19;;;9.23;100.00
4836;BME280;2432;51.226;6.904;2022-12-29T01:29:14;99586.56;;;9.29;100.00
4836;BME280;2432;51.226;6.904;2022-12-29T01:31:42;99589.06;;;9.34;100.00
4836;BME280;2432;51.226;6.904;2022-12-29T01:34:09;99587.97;;;9.41;100.00
4836;BME280;2432;51.226;6.904;2022-12-29T01:36:35;99586.09;;;9.45;100.00
4836;BME280;2432;51.226;6.904;2022-12-29T01:39:02;99585.09;;;9.49;100.00
4836;BME280;2432;51.226;6.904;2022-12-29T01:41:28;99571.13;;;9.50;100.00
4836;BME280;2432;51.226;6.904;2022-12-29T01:43:59;99572.94;;;9.48;100.00
4836;BME280;2432;51.226;6.904;2022-12-29T01:46:34;99576.16;;;9.56;100.00
4836;BME280;2432;51.226;6.904;2022-12-29T01:51:45;99559.34;;;9.63;100.00
4836;BME280;2432;51.226;6.904;2022-12-29T01:54:24;99564.44;;;9.68;100.00
4836;BME280;2432;51.226;6.904;2022-12-29T01:56:55;99561.75;;;9.69;100.00
4836;BME280;2432;51.226;6.904;2022-12-29T01:59:27;99548.63;;;9.71;100.00
4836;BME280;2432;51.226;6.904;2022-12-29T02:01:55;99545.97;;;9.72;100.00
4836;BME280;2432;51.226;6.904;2022-12-29T02:04:23;99539.88;;;9.72;100.00
4836;BME280;2432;51.226;6.904;2022-12-29T02:06:53;99546.81;;;9.73;100.00
4836;BME280;2432;51.226;6.904;2022-12-29T02:09:22;99546.09;;;9.69;100.00
4836;BME280;2432;51.226;6.904;2022-12-29T02:11:49;99545.94;;;9.74;100.00
4836;BME280;2432;51.226;6.904;2022-12-29T02:14:16;99555.31;;;9.79;100.00
4836;BME280;2432;51.226;6.904;2022-12-29T02:33:24;99530.72;;;10.10;100.00
4836;BME280;2432;51.226;6.904;2022-12-29T02:36:05;99529.31;;;10.25;100.00
4836;BME280;2432;51.226;6.904;2022-12-29T02:38:48;99525.06;;;10.22;100.00
4836;BME280;2432;51.226;6.904;2022-12-29T02:49:03;99521.47;;;10.25;100.00
4836;BME280;2432;51.226;6.904;2022-12-29T02:51:37;99512.66;;;10.27;100.00
4836;BME280;2432;51.226;6.904;2022-12-29T02:54:06;99510.22;;;10.23;100.00
4836;BME280;2432;51.226;6.904;2022-12-29T02:56:51;99502.88;;;10.32;100.00
4836;BME280;2432;51.226;6.904;2022-12-29T02:59:18;99499.53;;;10.29;100.00
4836;BME280;2432;51.226;6.904;2022-12-29T03:07:23;99503.69;;;10.34;100.00
4836;BME280;2432;51.226;6.904;2022-12-29T03:15:50;99489.78;;;10.32;100.00
4836;BME280;2432;51.226;6.904;2022-12-29T03:18:40;99493.16;;;10.36;100.00
4836;BME280;2432;51.226;6.904;2022-12-29T03:21:30;99479.72;;;10.45;100.00
4836;BME280;2432;51.226;6.904;2022-12-29T03:24:25;99476.81;;;10.53;100.00
4836;BME280;2432;51.226;6.904;2022-12-29T03:26:56;99467.50;;;10.67;100.00
4836;BME280;2432;51.226;6.904;2022-12-29T03:29:26;99468.34;;;10.68;100.00
4836;BME280;2432;51.226;6.904;2022-12-29T03:31:55;99468.22;;;10.49;100.00
4836;BME280;2432;51.226;6.904;2022-12-29T03:34:24;99470.56;;;10.33;100.00
4836;BME280;2432;51.226;6.904;2022-12-29T03:37:00;99476.31;;;10.19;100.00
4836;BME280;2432;51.226;6.904;2022-12-29T03:39:29;99466.00;;;10.15;100.00
4836;BME280;2432;51.226;6.904;2022-12-29T03:41:59;99466.84;;;10.15;100.00
4836;BME280;2432;51.226;6.904;2022-12-29T03:44:38;99464.28;;;10.14;100.00
4836;BME280;2432;51.226;6.904;2022-12-29T03:47:07;99461.22;;;10.03;100.00
4836;BME280;2432;51.226;6.904;2022-12-29T03:49:34;99455.22;;;10.01;100.00
4836;BME280;2432;51.226;6.904;2022-12-29T03:52:00;99462.03;;;10.05;100.00
4836;BME280;2432;51.226;6.904;2022-12-29T03:54:26;99473.19;;;10.10;100.00
4836;BME280;2432;51.226;6.904;2022-12-29T03:56:53;99457.50;;;10.10;100.00
4836;BME280;2432;51.226;6.904;2022-12-29T03:59:19;99468.88;;;10.09;100.00
4836;BME280;2432;51.226;6.904;2022-12-29T04:01:46;99432.97;;;10.12;100.00
4836;BME280;2432;51.226;6.904;2022-12-29T04:04:13;99445.34;;;10.07;100.00
4836;BME280;2432;51.226;6.904;2022-12-29T04:06:39;99443.00;;;10.01;100.00
4836;BME280;2432;51.226;6.904;2022-12-29T04:09:06;99447.47;;;9.98;100.00
4836;BME280;2432;51.226;6.904;2022-12-29T04:11:33;99434.56;;;9.93;100.00
4836;BME280;2432;51.226;6.904;2022-12-29T04:14:00;99433.59;;;9.96;100.00
4836;BME280;2432;51.226;6.904;2022-12-29T04:16:26;99429.22;;;9.96;100.00
4836;BME280;2432;51.226;6.904;2022-12-29T04:18:53;99429.16;;;9.98;100.00
4836;BME280;2432;51.226;6.904;2022-12-29T04:21:19;99431.19;;;9.91;100.00
4836;BME280;2432;51.226;6.904;2022-12-29T04:23:46;99436.44;;;9.89;100.00
4836;BME280;2432;51.226;6.904;2022-12-29T04:26:12;99447.66;;;9.93;100.00
4836;BME280;2432;51.226;6.904;2022-12-29T04:28:39;99454.63;;;9.93;100.00
4836;BME280;2432;51.226;6.904;2022-12-29T04:31:06;99445.06;;;10.15;100.00
4836;BME280;2432;51.226;6.904;2022-12-29T04:33:33;99454.09;;;10.08;100.00
4836;BME280;2432;51.226;6.904;2022-12-29T04:35:59;99461.38;;;9.98;100.00
4836;BME280;2432;51.226;6.904;2022-12-29T04:38:26;99467.19;;;10.06;100.00
4836;BME280;2432;51.226;6.904;2022-12-29T04:40:52;99456.84;;;10.03;100.00
4836;BME280;2432;51.226;6.904;2022-12-29T04:43:19;99462.16;;;10.02;100.00
4836;BME280;2432;51.226;6.904;2022-12-29T04:45:46;99458.78;;;10.22;100.00
4836;BME280;2432;51.226;6.904;2022-12-29T04:48:13;99461.94;;;10.31;100.00
4836;BME280;2432;51.226;6.904;2022-12-29T04:50:41;99455.63;;;10.59;100.00
4836;BME280;2432;51.226;6.904;2022-12-29T04:53:07;99451.25;;;10.81;100.00
4836;BME280;2432;51.226;6.904;2022-12-29T04:55:34;99474.91;;;11.00;100.00
4836;BME280;2432;51.226;6.904;2022-12-29T04:58:01;99460.84;;;11.02;100.00
4836;BME280;2432;51.226;6.904;2022-12-29T05:00:27;99456.28;;;11.08;100.00
4836;BME280;2432;51.226;6.904;2022-12-29T05:02:53;99470.59;;;10.99;100.00
4836;BME280;2432;51.226;6.904;2022-12-29T05:05:20;99467.81;;;11.03;100.00
4836;BME280;2432;51.226;6.904;2022-12-29T05:07:47;99463.66;;;10.98;100.00
4836;BME280;2432;51.226;6.904;2022-12-29T05:10:13;99460.13;;;10.99;100.00
4836;BME280;2432;51.226;6.904;2022-12-29T05:12:40;99485.81;;;11.11;100.00
4836;BME280;2432;51.226;6.904;2022-12-29T05:15:08;99456.44;;;11.25;100.00
4836;BME280;2432;51.226;6.904;2022-12-29T05:17:35;99464.34;;;11.23;100.00
4836;BME280;2432;51.226;6.904;2022-12-29T05:20:03;99466.34;;;11.39;100.00
4836;BME280;2432;51.226;6.904;2022-12-29T05:22:30;99474.59;;;11.29;100.00
4836;BME280;2432;51.226;6.904;2022-12-29T05:24:56;99471.09;;;11.29;100.00
4836;BME280;2432;51.226;6.904;2022-12-29T05:27:23;99471.00;;;11.10;100.00
4836;BME280;2432;51.226;6.904;2022-12-29T05:29:49;99483.38;;;11.07;100.00
4836;BME280;2432;51.226;6.904;2022-12-29T05:32:16;99486.38;;;10.97;100.00
4836;BME280;2432;51.226;6.904;2022-12-29T05:34:44;99477.16;;;11.09;100.00
4836;BME280;2432;51.226;6.904;2022-12-29T05:37:10;99480.31;;;11.17;100.00
4836;BME280;2432;51.226;6.904;2022-12-29T05:39:37;99472.41;;;11.19;100.00
4836;BME280;2432;51.226;6.904;2022-12-29T05:42:03;99456.75;;;11.17;100.00
4836;BME280;2432;51.226;6.904;2022-12-29T05:44:30;99462.75;;;11.19;100.00
4836;BME280;2432;51.226;6.904;2022-12-29T05:46:56;99472.53;;;10.94;100.00
4836;BME280;2432;51.226;6.904;2022-12-29T05:49:23;99485.59;;;10.95;100.00
4836;BME280;2432;51.226;6.904;2022-12-29T05:51:49;99468.97;;;10.96;100.00
4836;BME280;2432;51.226;6.904;2022-12-29T05:54:16;99480.22;;;10.98;100.00
4836;BME280;2432;51.226;6.904;2022-12-29T05:56:42;99485.00;;;10.89;100.00
4836;BME280;2432;51.226;6.904;2022-12-29T05:59:09;99480.09;;;11.01;100.00
4836;BME280;2432;51.226;6.904;2022-12-29T06:01:35;99479.81;;;10.87;100.00
4836;BME280;2432;51.226;6.904;2022-12-29T06:04:02;99493.81;;;10.86;100.00
4836;BME280;2432;51.226;6.904;2022-12-29T06:06:29;99492.09;;;11.07;100.00
4836;BME280;2432;51.226;6.904;2022-12-29T06:08:55;99502.50;;;11.09;100.00
4836;BME280;2432;51.226;6.904;2022-12-29T06:11:22;99511.53;;;11.01;100.00
4836;BME280;2432;51.226;6.904;2022-12-29T06:13:48;99524.25;;;11.11;100.00
4836;BME280;2432;51.226;6.904;2022-12-29T06:16:15;99499.66;;;11.35;100.00
4836;BME280;2432;51.226;6.904;2022-12-29T06:18:41;99522.84;;;11.24;100.00
4836;BME280;2432;51.226;6.904;2022-12-29T06:21:08;99505.56;;;10.98;100.00
4836;BME280;2432;51.226;6.904;2022-12-29T06:23:34;99502.94;;;10.98;100.00
4836;BME280;2432;51.226;6.904;2022-12-29T06:26:01;99505.56;;;10.98;100.00
4836;BME280;2432;51.226;6.904;2022-12-29T06:28:27;99510.41;;;10.85;100.00
4836;BME280;2432;51.226;6.904;2022-12-29T06:30:54;99512.69;;;10.72;100.00
4836;BME280;2432;51.226;6.904;2022-12-29T06:33:20;99518.72;;;10.74;100.00
4836;BME280;2432;51.226;6.904;2022-12-29T06:35:47;99533.63;;;10.72;100.00
4836;BME280;2432;51.226;6.904;2022-12-29T06:38:15;99531.88;;;10.73;100.00
4836;BME280;2432;51.226;6.904;2022-12-29T06:40:43;99543.91;;;10.77;100.00
4836;BME280;2432;51.226;6.904;2022-12-29T06:43:11;99560.06;;;10.88;100.00
4836;BME280;2432;51.226;6.904;2022-12-29T06:45:39;99546.50;;;11.00;100.00
4836;BME280;2432;51.226;6.904;2022-12-29T06:48:06;99546.00;;;10.91;100.00
4836;BME280;2432;51.226;6.904;2022-12-29T06:50:33;99562.06;;;10.82;100.00
4836;BME280;2432;51.226;6.904;2022-12-29T06:53:00;99544.88;;;10.74;100.00
4836;BME280;2432;51.226;6.904;2022-12-29T06:55:26;99550.13;;;10.74;100.00
4836;BME280;2432;51.226;6.904;2022-12-29T06:57:55;99547.34;;;10.79;100.00
4836;BME280;2432;51.226;6.904;2022-12-29T07:00:23;99549.91;;;10.81;100.00
4836;BME280;2432;51.226;6.904;2022-12-29T07:02:49;99559.53;;;10.80;100.00
4836;BME280;2432;51.226;6.904;2022-12-29T07:05:16;99554.28;;;10.80;100.00
4836;BME280;2432;51.226;6.904;2022-12-29T07:07:43;99550.69;;;10.83;100.00
4836;BME280;2432;51.226;6.904;2022-12-29T07:10:10;99556.53;;;10.89;100.00
4836;BME280;2432;51.226;6.904;2022-12-29T07:12:36;99556.53;;;10.89;100.00
4836;BME280;2432;51.226;6.904;2022-12-29T07:15:03;99560.94;;;10.89;100.00
4836;BME280;2432;51.226;6.904;2022-12-29T07:17:29;99565.59;;;10.81;100.00
4836;BME280;2432;51.226;6.904;2022-12-29T07:19:56;99558.81;;;10.75;100.00
4836;BME280;2432;51.226;6.904;2022-12-29T07:22:22;99556.47;;;10.69;100.00
4836;BME280;2432;51.226;6.904;2022-12-29T07:24:49;99578.47;;;10.63;100.00
4836;BME280;2432;51.226;6.904;2022-12-29T07:27:15;99566.47;;;10.58;100.00
4836;BME280;2432;51.226;6.904;2022-12-29T07:29:42;99570.56;;;10.65;100.00
4836;BME280;2432;51.226;6.904;2022-12-29T07:32:08;99566.94;;;10.69;100.00
4836;BME280;2432;51.226;6.904;2022-12-29T07:34:35;99580.47;;;10.57;100.00
4836;BME280;2432;51.226;6.904;2022-12-29T07:37:01;99591.84;;;10.56;100.00
4836;BME280;2432;51.226;6.904;2022-12-29T07:39:28;99592.75;;;10.55;100.00
4836;BME280;2432;51.226;6.904;2022-12-29T07:41:54;99604.16;;;10.54;100.00
4836;BME280;2432;51.226;6.904;2022-12-29T07:44:29;99599.94;;;10.73;100.00
4836;BME280;2432;51.226;6.904;2022-12-29T07:46:56;99612.56;;;10.62;100.00
4836;BME280;2432;51.226;6.904;2022-12-29T07:49:24;99610.81;;;10.62;100.00
4836;BME280;2432;51.226;6.904;2022-12-29T07:51:50;99607.00;;;10.71;100.00
4836;BME280;2432;51.226;6.904;2022-12-29T07:54:17;99617.47;;;10.71;100.00
4836;BME280;2432;51.226;6.904;2022-12-29T07:56:50;99627.31;;;10.64;100.00
4836;BME280;2432;51.226;6.904;2022-12-29T07:59:20;99624.97;;;10.57;100.00
4836;BME280;2432;51.226;6.904;2022-12-29T08:01:47;99620.50;;;10.60;100.00
4836;BME280;2432;51.226;6.904;2022-12-29T08:04:14;99626.31;;;10.67;100.00
4836;BME280;2432;51.226;6.904;2022-12-29T08:06:40;99621.16;;;10.65;100.00
4836;BME280;2432;51.226;6.904;2022-12-29T08:09:07;99615.84;;;10.67;100.00
4836;BME280;2432;51.226;6.904;2022-12-29T08:11:43;99622.78;;;10.68;100.00
4836;BME280;2432;51.226;6.904;2022-12-29T08:14:10;99628.03;;;10.68;100.00
4836;BME280;2432;51.226;6.904;2022-12-29T08:16:37;99620.50;;;10.60;100.00
4836;BME280;2432;51.226;6.904;2022-12-29T08:19:03;99635.56;;;10.54;100.00
4836;BME280;2432;51.226;6.904;2022-12-29T08:21:31;99637.94;;;10.60;100.00
4836;BME280;2432;51.226;6.904;2022-12-29T08:23:58;99626.56;;;10.61;100.00
4836;BME280;2432;51.226;6.904;2022-12-29T08:26:25;99639.09;;;10.53;100.00
4836;BME280;2432;51.226;6.904;2022-12-29T08:28:54;99631.97;;;10.56;100.00
4836;BME280;2432;51.226;6.904;2022-12-29T08:31:22;99635.75;;;10.47;100.00
4836;BME280;2432;51.226;6.904;2022-12-29T08:33:50;99633.78;;;10.54;100.00
4836;BME280;2432;51.226;6.904;2022-12-29T08:36:17;99637.47;;;10.48;100.00
4836;BME280;2432;51.226;6.904;2022-12-29T08:38:44;99635.03;;;10.44;100.00
4836;BME280;2432;51.226;6.904;2022-12-29T08:41:10;99651.06;;;10.35;100.00
4836;BME280;2432;51.226;6.904;2022-12-29T08:43:38;99651.19;;;10.55;100.00
4836;BME280;2432;51.226;6.904;2022-12-29T08:46:04;99660.22;;;10.46;100.00
4836;BME280;2432;51.226;6.904;2022-12-29T08:48:31;99668.22;;;10.17;100.00
4836;BME280;2432;51.226;6.904;2022-12-29T08:50:58;99668.06;;;9.95;100.00
4836;BME280;2432;51.226;6.904;2022-12-29T08:53:24;99666.06;;;9.77;100.00
4836;BME280;2432;51.226;6.904;2022-12-29T08:55:58;99665.41;;;9.70;100.00
4836;BME280;2432;51.226;6.904;2022-12-29T08:58:31;99676.75;;;9.69;100.00
4836;BME280;2432;51.226;6.904;2022-12-29T09:00:58;99684.66;;;9.68;100.00
4836;BME280;2432;51.226;6.904;2022-12-29T09:03:26;99676.81;;;9.68;100.00
4836;BME280;2432;51.226;6.904;2022-12-29T09:06:14;99676.88;;;9.66;100.00
4836;BME280;2432;51.226;6.904;2022-12-29T09:08:41;99670.00;;;9.62;100.00
4836;BME280;2432;51.226;6.904;2022-12-29T09:11:17;99675.25;;;9.62;100.00
4836;BME280;2432;51.226;6.904;2022-12-29T09:13:44;99676.94;;;9.63;100.00
4836;BME280;2432;51.226;6.904;2022-12-29T09:16:11;99675.84;;;9.70;100.00
4836;BME280;2432;51.226;6.904;2022-12-29T09:18:38;99675.66;;;9.76;100.00
4836;BME280;2432;51.226;6.904;2022-12-29T09:21:06;99696.09;;;9.91;100.00
4836;BME280;2432;51.226;6.904;2022-12-29T09:23:34;99689.66;;;10.02;100.00
4836;BME280;2432;51.226;6.904;2022-12-29T09:26:01;99694.69;;;10.08;100.00
4836;BME280;2432;51.226;6.904;2022-12-29T09:28:28;99700.84;;;10.05;100.00
4836;BME280;2432;51.226;6.904;2022-12-29T09:30:56;99703.06;;;10.17;100.00
4836;BME280;2432;51.226;6.904;2022-12-29T09:33:23;99713.13;;;10.30;100.00
4836;BME280;2432;51.226;6.904;2022-12-29T09:35:55;99697.66;;;10.24;100.00
4836;BME280;2432;51.226;6.904;2022-12-29T09:38:24;99721.59;;;10.38;100.00
4836;BME280;2432;51.226;6.904;2022-12-29T09:40:56;99699.63;;;10.42;100.00
4836;BME280;2432;51.226;6.904;2022-12-29T09:48:51;99723.16;;;10.43;100.00
4836;BME280;2432;51.226;6.904;2022-12-29T09:51:22;99724.94;;;10.41;100.00
4836;BME280;2432;51.226;6.904;2022-12-29T09:53:58;99719.50;;;10.47;100.00
4836;BME280;2432;51.226;6.904;2022-12-29T09:56:27;99715.88;;;10.52;100.00
4836;BME280;2432;51.226;6.904;2022-12-29T09:59:05;99721.13;;;10.52;100.00
4836;BME280;2432;51.226;6.904;2022-12-29T10:01:40;99723.88;;;10.47;100.00
4836;BME280;2432;51.226;6.904;2022-12-29T10:04:07;99726.31;;;10.53;100.00
4836;BME280;2432;51.226;6.904;2022-12-29T10:06:57;99721.47;;;10.66;100.00
4836;BME280;2432;51.226;6.904;2022-12-29T10:12:53;99708.00;;;10.76;100.00
4836;BME280;2432;51.226;6.904;2022-12-29T10:21:26;99715.84;;;10.76;100.00
4836;BME280;2432;51.226;6.904;2022-12-29T10:23:56;99709.19;;;10.68;100.00
4836;BME280;2432;51.226;6.904;2022-12-29T10:26:33;99717.59;;;10.78;100.00
4836;BME280;2432;51.226;6.904;2022-12-29T10:29:02;99725.72;;;10.70;100.00
4836;BME280;2432;51.226;6.904;2022-12-29T10:31:40;99726.19;;;10.56;100.00
4836;BME280;2432;51.226;6.904;2022-12-29T10:34:20;99728.34;;;10.68;100.00
4836;BME280;2432;51.226;6.904;2022-12-29T10:36:51;99714.84;;;10.81;100.00
4836;BME280;2432;51.226;6.904;2022-12-29T10:39:43;99728.00;;;10.79;100.00
4836;BME280;2432;51.226;6.904;2022-12-29T10:42:26;99726.13;;;10.83;100.00
4836;BME280;2432;51.226;6.904;2022-12-29T10:44:57;99738.41;;;10.81;100.00
4836;BME280;2432;51.226;6.904;2022-12-29T10:47:29;99734.75;;;10.85;100.00
4836;BME280;2432;51.226;6.904;2022-12-29T10:49:57;99741.78;;;10.84;100.00
4836;BME280;2432;51.226;6.904;2022-12-29T10:52:26;99745.50;;;11.02;100.00
4836;BME280;2432;51.226;6.904;2022-12-29T10:54:58;99739.53;;;10.98;100.00
4836;BME280;2432;51.226;6.904;2022-12-29T10:57:33;99746.00;;;10.88;100.00
4836;BME280;2432;51.226;6.904;2022-12-29T11:00:00;99743.31;;;10.90;100.00
4836;BME280;2432;51.226;6.904;2022-12-29T11:05:45;99764.09;;;10.94;100.00
4836;BME280;2432;51.226;6.904;2022-12-29T11:08:17;99770.09;;;10.98;100.00
4836;BME280;2432;51.226;6.904;2022-12-29T11:10:45;99752.25;;;10.84;100.00
4836;BME280;2432;51.226;6.904;2022-12-29T11:13:24;99756.81;;;10.79;100.00
4836;BME280;2432;51.226;6.904;2022-12-29T11:15:51;99762.91;;;10.80;100.00
4836;BME280;2432;51.226;6.904;2022-12-29T11:18:32;99762.84;;;10.81;100.00
4836;BME280;2432;51.226;6.904;2022-12-29T11:21:01;99773.44;;;10.76;100.00
4836;BME280;2432;51.226;6.904;2022-12-29T11:23:40;99772.56;;;10.78;100.00
4836;BME280;2432;51.226;6.904;2022-12-29T11:28:41;99761.06;;;10.82;100.00
4836;BME280;2432;51.226;6.904;2022-12-29T11:31:09;99776.91;;;10.79;100.00
4836;BME280;2432;51.226;6.904;2022-12-29T11:33:37;99797.47;;;10.89;100.00
4836;BME280;2432;51.226;6.904;2022-12-29T11:36:12;99789.94;;;10.80;100.00
4836;BME280;2432;51.226;6.904;2022-12-29T11:38:42;99799.63;;;10.78;100.00
4836;BME280;2432;51.226;6.904;2022-12-29T11:41:13;99788.09;;;10.82;100.00
4836;BME280;2432;51.226;6.904;2022-12-29T11:43:45;99800.41;;;10.80;100.00
4836;BME280;2432;51.226;6.904;2022-12-29T11:46:17;99803.09;;;10.77;100.00
4836;BME280;2432;51.226;6.904;2022-12-29T11:48:46;99796.34;;;10.71;100.00
4836;BME280;2432;51.226;6.904;2022-12-29T11:51:21;99803.47;;;10.66;100.00
4836;BME280;2432;51.226;6.904;2022-12-29T11:53:54;99807.78;;;10.69;100.00
4836;BME280;2432;51.226;6.904;2022-12-29T11:56:33;99804.28;;;10.68;100.00
4836;BME280;2432;51.226;6.904;2022-12-29T11:59:36;99815.56;;;10.70;100.00
4836;BME280;2432;51.226;6.904;2022-12-29T12:02:22;99804.25;;;10.70;100.00
4836;BME280;2432;51.226;6.904;2022-12-29T12:04:56;99832.13;;;10.71;100.00
4836;BME280;2432;51.226;6.904;2022-12-29T12:07:41;99822.72;;;10.65;100.00
4836;BME280;2432;51.226;6.904;2022-12-29T12:10:22;99814.91;;;10.64;100.00
4836;BME280;2432;51.226;6.904;2022-12-29T12:13:03;99819.25;;;10.65;100.00
4836;BME280;2432;51.226;6.904;2022-12-29T12:15:40;99826.19;;;10.66;100.00
4836;BME280;2432;51.226;6.904;2022-12-29T12:18:30;99828.25;;;10.56;100.00
4836;BME280;2432;51.226;6.904;2022-12-29T12:21:29;99831.84;;;10.54;100.00
4836;BME280;2432;51.226;6.904;2022-12-29T12:24:13;99827.59;;;10.50;100.00
4836;BME280;2432;51.226;6.904;2022-12-29T12:27:01;99822.38;;;10.50;100.00
4836;BME280;2432;51.226;6.904;2022-12-29T12:29:35;99833.59;;;10.53;100.00
4836;BME280;2432;51.226;6.904;2022-12-29T12:32:20;99833.75;;;10.48;100.00
4836;BME280;2432;51.226;6.904;2022-12-29T12:34:49;99831.91;;;10.52;100.00
4836;BME280;2432;51.226;6.904;2022-12-29T12:37:37;99825.03;;;10.48;100.00
4836;BME280;2432;51.226;6.904;2022-12-29T12:46:03;99841.59;;;10.48;100.00
4836;BME280;2432;51.226;6.904;2022-12-29T12:54:55;99849.25;;;10.55;100.00
4836;BME280;2432;51.226;6.904;2022-12-29T12:57:59;99850.41;;;10.46;100.00
4836;BME280;2432;51.226;6.904;2022-12-29T13:00:27;99840.91;;;10.43;100.00
4836;BME280;2432;51.226;6.904;2022-12-29T13:03:22;99857.53;;;10.41;100.00
4836;BME280;2432;51.226;6.904;2022-12-29T13:15:37;99856.16;;;10.57;100.00
4836;BME280;2432;51.226;6.904;2022-12-29T13:20:55;99861.00;;;10.43;100.00
4836;BME280;2432;51.226;6.904;2022-12-29T13:23:27;99860.13;;;10.42;100.00
4836;BME280;2432;51.226;6.904;2022-12-29T13:28:50;99865.41;;;10.41;100.00
4836;BME280;2432;51.226;6.904;2022-12-29T13:31:47;99855.78;;;10.41;100.00
4836;BME280;2432;51.226;6.904;2022-12-29T13:37:14;99863.78;;;10.37;100.00
4836;BME280;2432;51.226;6.904;2022-12-29T13:39:48;99866.34;;;10.38;100.00
4836;BME280;2432;51.226;6.904;2022-12-29T13:42:18;99865.44;;;10.39;100.00
4836;BME280;2432;51.226;6.904;2022-12-29T13:44:50;99870.44;;;10.47;100.00
4836;BME280;2432;51.226;6.904;2022-12-29T13:47:33;99871.25;;;10.49;100.00
4836;BME280;2432;51.226;6.904;2022-12-29T13:50:05;99866.13;;;10.46;100.00
4836;BME280;2432;51.226;6.904;2022-12-29T13:55:37;99870.34;;;10.50;100.00
4836;BME280;2432;51.226;6.904;2022-12-29T14:03:45;99871.00;;;10.57;100.00
4836;BME280;2432;51.226;6.904;2022-12-29T14:06:29;99866.91;;;10.48;100.00
4836;BME280;2432;51.226;6.904;2022-12-29T14:09:04;99873.91;;;10.47;100.00
4836;BME280;2432;51.226;6.904;2022-12-29T14:11:33;99875.56;;;10.50;100.00
4836;BME280;2432;51.226;6.904;2022-12-29T14:14:20;99887.00;;;10.47;100.00
4836;BME280;2432;51.226;6.904;2022-12-29T14:16:48;99886.03;;;10.50;100.00
4836;BME280;2432;51.226;6.904;2022-12-29T14:19:25;99879.31;;;10.43;100.00
4836;BME280;2432;51.226;6.904;2022-12-29T14:21:57;99890.63;;;10.43;100.00
4836;BME280;2432;51.226;6.904;2022-12-29T14:35:00;99903.16;;;10.32;100.00
4836;BME280;2432;51.226;6.904;2022-12-29T14:37:43;99908.28;;;10.37;100.00
4836;BME280;2432;51.226;6.904;2022-12-29T14:40:24;99901.38;;;10.34;100.00
4836;BME280;2432;51.226;6.904;2022-12-29T14:42:55;99909.25;;;10.33;100.00
4836;BME280;2432;51.226;6.904;2022-12-29T14:45:28;99915.56;;;10.27;100.00
4836;BME280;2432;51.226;6.904;2022-12-29T14:47:55;99926.78;;;10.31;100.00
4836;BME280;2432;51.226;6.904;2022-12-29T14:50:40;99918.38;;;10.19;100.00
4836;BME280;2432;51.226;6.904;2022-12-29T14:53:47;99911.38;;;10.20;100.00
4836;BME280;2432;51.226;6.904;2022-12-29T14:56:16;99912.34;;;10.17;100.00
4836;BME280;2432;51.226;6.904;2022-12-29T15:01:36;99924.56;;;10.15;100.00
4836;BME280;2432;51.226;6.904;2022-12-29T15:04:33;99914.94;;;10.17;100.00
4836;BME280;2432;51.226;6.904;2022-12-29T15:07:02;99924.72;;;10.11;100.00
4836;BME280;2432;51.226;6.904;2022-12-29T15:09:36;99914.97;;;10.16;100.00
4836;BME280;2432;51.226;6.904;2022-12-29T15:14:53;99924.22;;;9.98;100.00
4836;BME280;2432;51.226;6.904;2022-12-29T15:17:33;99928.31;;;10.08;100.00
4836;BME280;2432;51.226;6.904;2022-12-29T15:20:14;99921.59;;;10.00;100.00
4836;BME280;2432;51.226;6.904;2022-12-29T15:22:53;99925.91;;;10.01;100.00
4836;BME280;2432;51.226;6.904;2022-12-29T15:25:20;99948.50;;;10.03;100.00
4836;BME280;2432;51.226;6.904;2022-12-29T15:27:51;99928.63;;;9.96;100.00
4836;BME280;2432;51.226;6.904;2022-12-29T15:30:18;99930.41;;;9.96;100.00